createdAt,value
2022-11-29T00:00:26.095Z,8.30
2022-11-29T00:01:33.872Z,8.30
2022-11-29T00:03:09.325Z,8.30
2022-11-29T00:04:12.424Z,8.30
2022-11-29T00:05:16.286Z,8.30
2022-11-29T00:06:21.308Z,8.30
2022-11-29T00:07:25.014Z,8.20
2022-11-29T00:08:27.569Z,8.20
2022-11-29T00:09:31.173Z,8.20
2022-11-29T00:10:37.120Z,8.20
2022-11-29T00:12:00.268Z,8.20
2022-11-29T00:13:34.324Z,8.20
2022-11-29T00:14:36.518Z,8.20
2022-11-29T00:15:43.294Z,8.20
2022-11-29T00:16:53.412Z,8.20
2022-11-29T00:17:56.113Z,8.20
2022-11-29T00:18:59.814Z,8.20
2022-11-29T00:20:02.285Z,8.20
2022-11-29T00:21:07.983Z,8.20
2022-11-29T00:22:10.470Z,8.20
2022-11-29T00:23:14.257Z,8.20
2022-11-29T00:24:17.597Z,8.20
2022-11-29T00:25:21.562Z,8.20
2022-11-29T00:26:40.709Z,8.20
2022-11-29T00:27:44.066Z,8.20
2022-11-29T00:28:47.840Z,8.20
2022-11-29T00:29:51.192Z,8.20
2022-11-29T00:30:53.547Z,8.20
2022-11-29T00:31:56.968Z,8.20
2022-11-29T00:32:59.388Z,8.20
2022-11-29T00:34:06.903Z,8.20
2022-11-29T00:35:09.904Z,8.20
2022-11-29T00:36:14.264Z,8.20
2022-11-29T00:37:16.720Z,8.20
2022-11-29T00:38:20.100Z,8.20
2022-11-29T00:39:22.732Z,8.20
2022-11-29T00:40:26.228Z,8.20
2022-11-29T00:41:28.610Z,8.20
2022-11-29T00:42:33.963Z,8.20
2022-11-29T00:43:36.816Z,8.20
2022-11-29T00:44:43.040Z,8.20
2022-11-29T00:45:45.659Z,8.20
2022-11-29T00:46:49.966Z,8.20
2022-11-29T00:47:52.475Z,8.20
2022-11-29T00:48:56.056Z,8.20
2022-11-29T00:49:59.575Z,8.20
2022-11-29T00:51:02.641Z,8.20
2022-11-29T00:52:06.515Z,8.20
2022-11-29T00:53:16.465Z,8.20
2022-11-29T00:54:20.133Z,8.20
2022-11-29T00:55:22.494Z,8.20
2022-11-29T00:56:26.010Z,8.20
2022-11-29T00:57:28.510Z,8.10
2022-11-29T00:58:34.123Z,8.20
2022-11-29T00:59:36.619Z,8.20
2022-11-29T01:00:42.196Z,8.20
2022-11-29T01:01:44.784Z,8.20
2022-11-29T01:02:48.328Z,8.20
2022-11-29T01:03:50.799Z,8.20
2022-11-29T01:04:54.406Z,8.20
2022-11-29T01:06:02.158Z,8.20
2022-11-29T01:07:07.906Z,8.20
2022-11-29T01:08:11.276Z,8.20
2022-11-29T01:09:14.710Z,8.10
2022-11-29T01:10:20.216Z,8.20
2022-11-29T01:11:26.978Z,8.20
2022-11-29T01:12:31.504Z,8.20
2022-11-29T01:13:36.932Z,8.20
2022-11-29T01:14:39.507Z,8.10
2022-11-29T01:15:42.939Z,8.20
2022-11-29T01:16:45.411Z,8.20
2022-11-29T01:17:50.395Z,8.10
2022-11-29T01:18:53.271Z,8.10
2022-11-29T01:19:58.864Z,8.20
2022-11-29T01:21:07.991Z,8.20
2022-11-29T01:22:11.481Z,8.20
2022-11-29T01:23:13.886Z,8.20
2022-11-29T01:24:17.570Z,8.20
2022-11-29T01:25:20.437Z,8.20
2022-11-29T01:26:26.591Z,8.20
2022-11-29T01:27:29.813Z,8.20
2022-11-29T01:28:33.197Z,8.20
2022-11-29T01:29:40.785Z,8.20
2022-11-29T01:30:43.221Z,8.20
2022-11-29T01:31:47.131Z,8.20
2022-11-29T01:32:52.037Z,8.20
2022-11-29T01:33:56.254Z,8.20
2022-11-29T01:34:58.749Z,8.20
2022-11-29T01:36:02.534Z,8.20
2022-11-29T01:37:04.925Z,8.20
2022-11-29T01:38:08.415Z,8.20
2022-11-29T01:39:12.401Z,8.20
2022-11-29T01:40:15.082Z,8.20
2022-11-29T01:41:23.171Z,8.20
2022-11-29T01:42:25.896Z,8.20
2022-11-29T01:43:29.813Z,8.20
2022-11-29T01:45:21.471Z,8.20
2022-11-29T01:46:25.088Z,8.20
2022-11-29T01:47:29.082Z,8.20
2022-11-29T01:48:33.522Z,8.20
2022-11-29T01:49:40.210Z,8.20
2022-11-29T01:50:44.512Z,8.20
2022-11-29T01:51:54.372Z,8.20
2022-11-29T01:52:57.969Z,8.20
2022-11-29T01:54:00.653Z,8.20
2022-11-29T01:55:09.329Z,8.20
2022-11-29T01:56:16.132Z,8.20
2022-11-29T01:57:21.401Z,8.20
2022-11-29T01:58:26.945Z,8.30
2022-11-29T01:59:31.819Z,8.20
2022-11-29T02:00:36.318Z,8.30
2022-11-29T02:01:40.225Z,8.30
2022-11-29T02:02:44.916Z,8.20
2022-11-29T02:03:48.683Z,8.20
2022-11-29T02:04:51.650Z,8.20
2022-11-29T02:05:58.109Z,8.20
2022-11-29T02:07:00.664Z,8.20
2022-11-29T02:08:05.879Z,8.20
2022-11-29T02:09:20.812Z,8.20
2022-11-29T02:10:52.837Z,8.20
2022-11-29T02:12:21.853Z,8.20
2022-11-29T02:13:36.228Z,8.20
2022-11-29T02:15:03.518Z,8.20
2022-11-29T02:16:16.666Z,8.20
2022-11-29T02:17:31.363Z,8.20
2022-11-29T02:18:50.781Z,8.20
2022-11-29T02:20:56.549Z,8.20
2022-11-29T02:22:06.639Z,8.20
2022-11-29T02:23:42.898Z,8.20
2022-11-29T02:25:41.375Z,8.10
2022-11-29T02:27:17.078Z,8.10
2022-11-29T02:28:59.132Z,8.10
2022-11-29T02:30:39.150Z,8.10
2022-11-29T02:32:47.124Z,8.10
2022-11-29T02:34:15.234Z,8.10
2022-11-29T02:35:38.001Z,8.10
2022-11-29T02:37:11.367Z,8.10
2022-11-29T02:38:35.829Z,8.10
2022-11-29T02:40:10.240Z,8.10
2022-11-29T02:41:41.220Z,8.10
2022-11-29T02:43:26.956Z,8.00
2022-11-29T02:44:57.776Z,8.10
2022-11-29T02:46:22.058Z,8.00
2022-11-29T02:47:37.199Z,8.00
2022-11-29T02:48:55.959Z,8.00
2022-11-29T02:50:30.490Z,8.00
2022-11-29T02:51:43.622Z,8.00
2022-11-29T02:53:01.057Z,8.00
2022-11-29T02:54:14.241Z,8.00
2022-11-29T02:55:26.058Z,8.00
2022-11-29T02:56:36.506Z,8.00
2022-11-29T02:57:47.141Z,8.00
2022-11-29T02:58:58.984Z,8.00
2022-11-29T03:00:10.375Z,7.90
2022-11-29T03:01:21.307Z,7.90
2022-11-29T03:02:32.754Z,7.90
2022-11-29T03:03:42.699Z,7.90
2022-11-29T03:04:55.849Z,7.90
2022-11-29T03:06:12.669Z,7.90
2022-11-29T03:07:26.658Z,7.90
2022-11-29T03:08:38.025Z,7.90
2022-11-29T03:09:47.686Z,7.90
2022-11-29T03:11:05.791Z,7.90
2022-11-29T03:12:21.798Z,7.90
2022-11-29T03:13:49.195Z,7.90
2022-11-29T03:15:08.462Z,7.90
2022-11-29T03:16:26.392Z,7.90
2022-11-29T03:17:44.359Z,7.90
2022-11-29T03:19:00.479Z,7.90
2022-11-29T03:20:30.082Z,7.90
2022-11-29T03:21:46.232Z,7.80
2022-11-29T03:23:09.902Z,7.80
2022-11-29T03:24:22.546Z,7.80
2022-11-29T03:25:36.821Z,7.80
2022-11-29T03:26:46.605Z,7.80
2022-11-29T03:27:59.626Z,7.80
2022-11-29T03:29:10.770Z,7.80
2022-11-29T03:30:17.936Z,7.80
2022-11-29T03:31:28.240Z,7.80
2022-11-29T03:32:40.862Z,7.80
2022-11-29T03:33:55.529Z,7.80
2022-11-29T03:35:07.769Z,7.80
2022-11-29T03:36:22.601Z,7.80
2022-11-29T03:37:38.800Z,7.80
2022-11-29T03:38:46.192Z,7.80
2022-11-29T03:39:56.555Z,7.80
2022-11-29T03:41:16.420Z,7.80
2022-11-29T03:42:25.391Z,7.80
2022-11-29T03:43:42.778Z,7.70
2022-11-29T03:44:55.210Z,7.70
2022-11-29T03:46:03.968Z,7.70
2022-11-29T03:47:13.469Z,7.70
2022-11-29T03:48:30.329Z,7.70
2022-11-29T03:49:40.923Z,7.70
2022-11-29T03:50:49.658Z,7.70
2022-11-29T03:52:05.423Z,7.70
2022-11-29T03:53:17.285Z,7.70
2022-11-29T03:54:27.612Z,7.70
2022-11-29T03:55:47.231Z,7.70
2022-11-29T03:56:52.057Z,7.70
2022-11-29T03:58:17.692Z,7.70
2022-11-29T03:59:41.610Z,7.70
2022-11-29T04:01:31.999Z,7.70
2022-11-29T04:03:33.316Z,7.70
2022-11-29T04:05:27.036Z,7.60
2022-11-29T04:06:48.482Z,7.60
2022-11-29T04:08:28.958Z,7.60
2022-11-29T04:10:09.226Z,7.60
2022-11-29T04:11:55.012Z,7.60
2022-11-29T04:13:45.694Z,7.60
2022-11-29T04:15:26.801Z,7.60
2022-11-29T04:17:33.733Z,7.60
2022-11-29T04:19:24.924Z,7.60
2022-11-29T04:21:14.745Z,7.60
2022-11-29T04:23:16.457Z,7.60
2022-11-29T04:25:16.338Z,7.60
2022-11-29T04:27:01.441Z,7.70
2022-11-29T04:29:01.198Z,7.70
2022-11-29T04:30:14.243Z,7.70
2022-11-29T04:31:29.572Z,7.70
2022-11-29T04:33:29.114Z,7.70
2022-11-29T04:35:06.273Z,7.70
2022-11-29T04:36:59.517Z,7.60
2022-11-29T04:38:27.696Z,7.60
2022-11-29T04:40:04.709Z,7.60
2022-11-29T04:41:28.548Z,7.60
2022-11-29T04:42:58.679Z,7.60
2022-11-29T04:44:32.229Z,7.70
2022-11-29T04:46:12.956Z,7.60
2022-11-29T04:47:46.764Z,7.60
2022-11-29T04:49:12.047Z,7.60
2022-11-29T04:50:33.529Z,7.60
2022-11-29T04:52:00.669Z,7.70
2022-11-29T04:53:46.774Z,7.70
2022-11-29T04:55:00.103Z,7.70
2022-11-29T04:56:18.066Z,7.70
2022-11-29T04:57:36.079Z,7.70
2022-11-29T04:58:45.225Z,7.70
2022-11-29T04:59:54.714Z,7.70
2022-11-29T05:01:06.047Z,7.70
2022-11-29T05:02:27.181Z,7.70
2022-11-29T05:03:44.170Z,7.70
2022-11-29T05:04:58.913Z,7.70
2022-11-29T05:06:17.569Z,7.70
2022-11-29T05:07:32.562Z,7.70
2022-11-29T05:08:50.058Z,7.60
2022-11-29T05:10:03.097Z,7.60
2022-11-29T05:11:22.033Z,7.60
2022-11-29T05:12:35.660Z,7.60
2022-11-29T05:13:49.889Z,7.60
2022-11-29T05:15:28.869Z,7.60
2022-11-29T05:16:54.487Z,7.60
2022-11-29T05:18:07.535Z,7.60
2022-11-29T05:19:44.308Z,7.60
2022-11-29T05:20:53.017Z,7.60
2022-11-29T05:22:11.609Z,7.60
2022-11-29T05:23:40.137Z,7.60
2022-11-29T05:25:00.750Z,7.60
2022-11-29T05:26:14.845Z,7.60
2022-11-29T05:27:26.087Z,7.60
2022-11-29T05:28:43.100Z,7.60
2022-11-29T05:29:56.560Z,7.60
2022-11-29T05:31:26.333Z,7.60
2022-11-29T05:32:35.691Z,7.60
2022-11-29T05:34:22.066Z,7.60
2022-11-29T05:35:54.196Z,7.60
2022-11-29T05:37:07.403Z,7.60
2022-11-29T05:38:28.053Z,7.60
2022-11-29T05:39:43.440Z,7.60
2022-11-29T05:41:07.255Z,7.60
2022-11-29T05:42:36.850Z,7.60
2022-11-29T05:43:56.474Z,7.60
2022-11-29T05:45:05.655Z,7.60
2022-11-29T05:46:18.436Z,7.60
2022-11-29T05:47:34.420Z,7.60
2022-11-29T05:48:48.613Z,7.60
2022-11-29T05:50:04.846Z,7.60
2022-11-29T05:51:21.370Z,7.60
2022-11-29T05:52:29.218Z,7.60
2022-11-29T05:53:45.415Z,7.60
2022-11-29T05:55:03.700Z,7.60
2022-11-29T05:56:27.841Z,7.60
2022-11-29T05:57:42.701Z,7.60
2022-11-29T05:58:51.122Z,7.60
2022-11-29T05:59:57.731Z,7.60
2022-11-29T06:01:11.358Z,7.60
2022-11-29T06:02:35.446Z,7.60
2022-11-29T06:03:45.000Z,7.60
2022-11-29T06:05:07.812Z,7.60
2022-11-29T06:06:19.380Z,7.60
2022-11-29T06:07:30.814Z,7.60
2022-11-29T06:08:41.147Z,7.60
2022-11-29T06:09:49.360Z,7.60
2022-11-29T06:11:06.017Z,7.60
2022-11-29T06:12:20.858Z,7.60
2022-11-29T06:13:39.667Z,7.60
2022-11-29T06:15:11.624Z,7.60
2022-11-29T06:16:50.778Z,7.60
2022-11-29T06:18:34.670Z,7.60
2022-11-29T06:20:09.091Z,7.60
2022-11-29T06:21:26.052Z,7.50
2022-11-29T06:22:50.732Z,7.60
2022-11-29T06:24:26.126Z,7.50
2022-11-29T06:25:50.354Z,7.50
2022-11-29T06:27:24.899Z,7.50
2022-11-29T06:28:45.776Z,7.60
2022-11-29T06:29:57.709Z,7.60
2022-11-29T06:31:09.845Z,7.60
2022-11-29T06:32:25.240Z,7.60
2022-11-29T06:33:37.413Z,7.60
2022-11-29T06:34:48.230Z,7.60
2022-11-29T06:36:08.658Z,7.60
2022-11-29T06:37:20.831Z,7.60
2022-11-29T06:38:27.190Z,7.60
2022-11-29T06:39:31.828Z,7.60
2022-11-29T06:40:35.549Z,7.60
2022-11-29T06:41:41.252Z,7.60
2022-11-29T06:42:45.378Z,7.60
2022-11-29T06:43:52.815Z,7.60
2022-11-29T06:44:57.132Z,7.60
2022-11-29T06:46:06.717Z,7.60
2022-11-29T06:47:19.404Z,7.60
2022-11-29T06:48:27.548Z,7.60
2022-11-29T06:49:35.855Z,7.60
2022-11-29T06:50:54.675Z,7.60
2022-11-29T06:52:12.695Z,7.60
2022-11-29T06:53:23.633Z,7.60
2022-11-29T06:54:45.119Z,7.60
2022-11-29T06:55:59.803Z,7.60
2022-11-29T06:57:12.781Z,7.60
2022-11-29T06:58:37.866Z,7.60
2022-11-29T06:59:54.310Z,7.60
2022-11-29T07:01:06.147Z,7.60
2022-11-29T07:02:33.585Z,7.60
2022-11-29T07:04:03.408Z,7.60
2022-11-29T07:05:16.535Z,7.60
2022-11-29T07:06:24.001Z,7.50
2022-11-29T07:07:27.633Z,7.50
2022-11-29T07:08:32.113Z,7.50
2022-11-29T07:09:35.710Z,7.50
2022-11-29T07:10:41.850Z,7.50
2022-11-29T07:11:48.636Z,7.50
2022-11-29T07:12:53.544Z,7.50
2022-11-29T07:13:59.418Z,7.40
2022-11-29T07:15:04.012Z,7.40
2022-11-29T07:16:18.784Z,7.40
2022-11-29T07:17:28.567Z,7.40
2022-11-29T07:18:43.137Z,7.40
2022-11-29T07:19:58.185Z,7.40
2022-11-29T07:21:15.852Z,7.40
2022-11-29T07:22:41.118Z,7.40
2022-11-29T07:23:57.601Z,7.40
2022-11-29T07:25:12.608Z,7.40
2022-11-29T07:26:29.743Z,7.40
2022-11-29T07:27:42.624Z,7.40
2022-11-29T07:29:14.433Z,7.40
2022-11-29T07:30:21.778Z,7.40
2022-11-29T07:31:38.961Z,7.40
2022-11-29T07:33:00.572Z,7.30
2022-11-29T07:34:16.116Z,7.40
2022-11-29T07:35:27.615Z,7.30
2022-11-29T07:36:42.641Z,7.30
2022-11-29T07:38:06.013Z,7.30
2022-11-29T07:39:27.509Z,7.30
2022-11-29T07:40:39.664Z,7.30
2022-11-29T07:41:54.267Z,7.30
2022-11-29T07:43:23.732Z,7.30
2022-11-29T07:44:37.287Z,7.30
2022-11-29T07:45:40.551Z,7.30
2022-11-29T07:46:44.528Z,7.30
2022-11-29T07:47:47.010Z,7.30
2022-11-29T07:48:50.924Z,7.30
2022-11-29T07:49:53.515Z,7.30
2022-11-29T07:50:57.700Z,7.30
2022-11-29T07:52:01.405Z,7.30
2022-11-29T07:53:05.120Z,7.30
2022-11-29T07:54:10.957Z,7.30
2022-11-29T07:55:18.637Z,7.30
2022-11-29T07:56:22.749Z,7.30
2022-11-29T07:57:25.361Z,7.30
2022-11-29T07:58:29.420Z,7.30
2022-11-29T07:59:38.907Z,7.30
2022-11-29T08:00:42.384Z,7.30
2022-11-29T08:01:46.239Z,7.30
2022-11-29T08:02:50.349Z,7.30
2022-11-29T08:03:53.767Z,7.30
2022-11-29T08:04:56.566Z,7.40
2022-11-29T08:06:00.186Z,7.40
2022-11-29T08:07:02.606Z,7.30
2022-11-29T08:08:07.664Z,7.40
2022-11-29T08:09:11.436Z,7.40
2022-11-29T08:10:17.221Z,7.40
2022-11-29T08:11:20.779Z,7.40
2022-11-29T08:12:26.835Z,7.40
2022-11-29T08:13:30.451Z,7.40
2022-11-29T08:14:34.389Z,7.40
2022-11-29T08:15:44.792Z,7.40
2022-11-29T08:16:54.118Z,7.30
2022-11-29T08:17:56.760Z,7.30
2022-11-29T08:19:00.671Z,7.40
2022-11-29T08:20:04.579Z,7.40
2022-11-29T08:21:09.358Z,7.30
2022-11-29T08:22:13.928Z,7.30
2022-11-29T08:23:19.981Z,7.30
2022-11-29T08:24:23.637Z,7.30
2022-11-29T08:25:28.259Z,7.30
2022-11-29T08:26:32.162Z,7.30
2022-11-29T08:27:36.394Z,7.30
2022-11-29T08:28:40.151Z,7.30
2022-11-29T08:29:43.628Z,7.30
2022-11-29T08:30:49.780Z,7.30
2022-11-29T08:31:54.592Z,7.30
2022-11-29T08:32:57.171Z,7.30
2022-11-29T08:34:00.607Z,7.30
2022-11-29T08:35:04.274Z,7.30
2022-11-29T08:36:10.899Z,7.40
2022-11-29T08:37:16.696Z,7.40
2022-11-29T08:38:21.366Z,7.40
2022-11-29T08:39:25.152Z,7.40
2022-11-29T08:40:27.839Z,7.40
2022-11-29T08:41:33.236Z,7.40
2022-11-29T08:42:36.831Z,7.40
2022-11-29T08:43:40.945Z,7.40
2022-11-29T08:44:44.775Z,7.40
2022-11-29T08:45:53.697Z,7.40
2022-11-29T08:47:14.714Z,7.40
2022-11-29T08:48:18.148Z,7.50
2022-11-29T08:49:20.665Z,7.50
2022-11-29T08:50:26.701Z,7.50
2022-11-29T08:51:30.145Z,7.50
2022-11-29T08:52:54.131Z,7.50
2022-11-29T08:53:56.635Z,7.50
2022-11-29T08:55:03.181Z,7.50
2022-11-29T08:56:31.830Z,7.60
2022-11-29T08:57:41.583Z,7.60
2022-11-29T08:58:47.602Z,7.60
2022-11-29T08:59:50.189Z,7.60
2022-11-29T09:00:57.975Z,7.70
2022-11-29T09:02:00.666Z,7.70
2022-11-29T09:03:23.767Z,7.70
2022-11-29T09:04:27.374Z,7.70
2022-11-29T09:05:33.094Z,7.70
2022-11-29T09:06:41.502Z,7.80
2022-11-29T09:07:44.079Z,7.80
2022-11-29T09:08:49.822Z,7.80
2022-11-29T09:09:52.165Z,7.80
2022-11-29T09:10:55.667Z,7.80
2022-11-29T09:11:59.266Z,7.90
2022-11-29T09:13:02.595Z,7.90
2022-11-29T09:14:09.770Z,7.90
2022-11-29T09:15:13.041Z,7.90
2022-11-29T09:16:22.277Z,7.90
2022-11-29T09:17:25.969Z,8.00
2022-11-29T09:18:31.480Z,8.00
2022-11-29T09:19:35.242Z,8.00
2022-11-29T09:20:40.846Z,8.00
2022-11-29T09:21:46.769Z,8.00
2022-11-29T09:22:49.271Z,8.00
2022-11-29T09:23:58.829Z,8.00
2022-11-29T09:25:02.848Z,8.00
2022-11-29T09:26:10.183Z,8.10
2022-11-29T09:27:13.825Z,8.10
2022-11-29T09:28:16.619Z,8.10
2022-11-29T09:29:20.358Z,8.10
2022-11-29T09:30:23.937Z,8.10
2022-11-29T09:31:32.622Z,8.10
2022-11-29T09:32:36.924Z,8.10
2022-11-29T09:33:41.374Z,8.20
2022-11-29T09:34:45.154Z,8.20
2022-11-29T09:35:48.797Z,8.20
2022-11-29T09:36:52.915Z,8.20
2022-11-29T09:37:55.455Z,8.20
2022-11-29T09:39:00.052Z,8.20
2022-11-29T09:40:02.754Z,8.20
2022-11-29T09:41:27.834Z,8.20
2022-11-29T09:42:47.946Z,8.20
2022-11-29T09:44:00.787Z,8.20
2022-11-29T09:45:10.927Z,8.20
2022-11-29T09:46:31.006Z,8.30
2022-11-29T09:48:12.350Z,8.30
2022-11-29T09:49:51.991Z,8.30
2022-11-29T09:51:05.540Z,8.30
2022-11-29T09:52:19.347Z,8.30
2022-11-29T09:54:01.920Z,8.30
2022-11-29T09:55:28.540Z,8.30
2022-11-29T09:56:42.473Z,8.30
2022-11-29T09:57:46.573Z,8.30
2022-11-29T09:58:58.756Z,8.30
2022-11-29T10:00:07.396Z,8.30
2022-11-29T10:01:18.094Z,8.30
2022-11-29T10:02:31.920Z,8.30
2022-11-29T10:03:44.512Z,8.30
2022-11-29T10:04:55.177Z,8.30
2022-11-29T10:06:05.009Z,8.30
2022-11-29T10:07:15.761Z,8.30
2022-11-29T10:08:27.164Z,8.30
2022-11-29T10:09:37.129Z,8.30
2022-11-29T10:10:45.338Z,8.40
2022-11-29T10:12:05.288Z,8.40
2022-11-29T10:13:23.251Z,8.40
2022-11-29T10:14:37.866Z,8.40
2022-11-29T10:15:45.362Z,8.40
2022-11-29T10:16:53.088Z,8.40
2022-11-29T10:18:03.340Z,8.40
2022-11-29T10:19:19.611Z,8.40
2022-11-29T10:20:29.296Z,8.40
2022-11-29T10:21:39.952Z,8.40
2022-11-29T10:22:54.556Z,8.40
2022-11-29T10:24:05.126Z,8.40
2022-11-29T10:25:17.393Z,8.40
2022-11-29T10:26:24.065Z,8.40
2022-11-29T10:27:29.688Z,8.40
2022-11-29T10:28:37.042Z,8.40
2022-11-29T10:29:40.809Z,8.50
2022-11-29T10:30:44.713Z,8.50
2022-11-29T10:31:50.274Z,8.50
2022-11-29T10:33:01.269Z,8.50
2022-11-29T10:34:20.816Z,8.50
2022-11-29T10:35:26.852Z,8.50
2022-11-29T10:36:41.904Z,8.50
2022-11-29T10:38:07.606Z,8.60
2022-11-29T10:39:17.854Z,8.60
2022-11-29T10:40:32.544Z,8.60
2022-11-29T10:41:38.732Z,8.60
2022-11-29T10:42:50.400Z,8.60
2022-11-29T10:43:57.247Z,8.70
2022-11-29T10:45:00.255Z,8.70
2022-11-29T10:46:04.894Z,8.70
2022-11-29T10:47:11.062Z,8.70
2022-11-29T10:48:19.141Z,8.70
2022-11-29T10:49:33.403Z,8.80
2022-11-29T10:50:37.474Z,8.80
2022-11-29T10:51:41.127Z,8.80
2022-11-29T10:52:43.861Z,8.80
2022-11-29T10:53:47.887Z,8.90
2022-11-29T10:54:56.602Z,8.90
2022-11-29T10:56:03.740Z,8.90
2022-11-29T10:57:15.647Z,8.90
2022-11-29T10:58:27.930Z,8.90
2022-11-29T10:59:33.540Z,9.00
2022-11-29T11:00:50.794Z,9.00
2022-11-29T11:01:55.086Z,9.10
2022-11-29T11:03:16.940Z,9.10
2022-11-29T11:04:30.570Z,9.10
2022-11-29T11:05:33.397Z,9.20
2022-11-29T11:06:47.202Z,9.20
2022-11-29T11:07:59.879Z,9.20
2022-11-29T11:09:20.712Z,9.30
2022-11-29T11:10:30.973Z,9.30
2022-11-29T11:11:35.462Z,9.30
2022-11-29T11:12:39.077Z,9.30
2022-11-29T11:13:43.214Z,9.30
2022-11-29T11:14:47.531Z,9.40
2022-11-29T11:15:56.781Z,9.40
2022-11-29T11:17:22.351Z,9.40
2022-11-29T11:18:29.315Z,9.50
2022-11-29T11:19:35.905Z,9.50
2022-11-29T11:20:44.379Z,9.50
2022-11-29T11:21:47.894Z,9.60
2022-11-29T11:23:00.768Z,9.60
2022-11-29T11:24:04.704Z,9.60
2022-11-29T11:25:28.534Z,9.70
2022-11-29T11:26:45.949Z,9.70
2022-11-29T11:27:48.749Z,9.80
2022-11-29T11:28:57.797Z,9.90
2022-11-29T11:30:02.954Z,9.90
2022-11-29T11:31:08.470Z,9.90
2022-11-29T11:32:19.678Z,10.00
2022-11-29T11:33:27.933Z,10.00
2022-11-29T11:34:36.607Z,10.00
2022-11-29T11:35:39.140Z,10.00
2022-11-29T11:36:44.896Z,10.00
2022-11-29T11:37:57.879Z,10.10
2022-11-29T11:39:14.261Z,10.10
2022-11-29T11:40:29.152Z,10.10
2022-11-29T11:42:02.418Z,10.10
2022-11-29T11:43:06.197Z,10.10
2022-11-29T11:45:55.577Z,10.10
2022-11-29T11:46:59.597Z,10.00
2022-11-29T11:48:06.641Z,10.00
2022-11-29T11:49:12.805Z,10.00
2022-11-29T11:50:33.836Z,10.00
2022-11-29T11:51:43.925Z,10.00
2022-11-29T11:52:53.509Z,9.90
2022-11-29T11:54:00.375Z,9.90
2022-11-29T11:55:08.868Z,9.90
2022-11-29T11:56:14.635Z,9.90
2022-11-29T11:57:20.019Z,9.90
2022-11-29T11:58:24.991Z,9.80
2022-11-29T11:59:29.476Z,9.80
2022-11-29T12:02:27.584Z,9.80
2022-11-29T12:03:52.710Z,9.80
2022-11-29T12:04:59.897Z,9.80
2022-11-29T12:06:47.276Z,9.90
2022-11-29T12:08:13.891Z,9.90
2022-11-29T12:09:33.949Z,9.90
2022-11-29T12:10:40.362Z,9.90
2022-11-29T12:12:00.189Z,9.90
2022-11-29T12:13:05.708Z,9.90
2022-11-29T12:14:16.311Z,9.90
2022-11-29T12:15:23.830Z,9.90
2022-11-29T12:16:35.776Z,9.90
2022-11-29T12:17:48.577Z,9.80
2022-11-29T12:18:54.289Z,9.80
2022-11-29T12:20:16.595Z,9.80
2022-11-29T12:21:26.727Z,9.80
2022-11-29T12:22:43.927Z,9.70
2022-11-29T12:24:00.976Z,9.70
2022-11-29T12:25:12.593Z,9.70
2022-11-29T12:26:48.913Z,9.70
2022-11-29T12:27:47.299Z,9.70
2022-11-29T12:28:51.473Z,9.60
2022-11-29T12:29:55.362Z,9.60
2022-11-29T12:31:12.755Z,9.60
2022-11-29T12:32:54.672Z,9.60
2022-11-29T12:34:13.276Z,9.60
2022-11-29T12:35:51.749Z,9.60
2022-11-29T12:37:07.862Z,9.60
2022-11-29T12:38:29.492Z,9.60
2022-11-29T12:39:52.182Z,9.70
2022-11-29T12:41:17.156Z,9.70
2022-11-29T12:42:36.782Z,9.70
2022-11-29T12:43:54.786Z,9.70
2022-11-29T12:45:05.567Z,9.70
2022-11-29T12:46:16.423Z,9.80
2022-11-29T12:47:36.505Z,9.80
2022-11-29T12:48:50.381Z,9.80
2022-11-29T12:50:08.481Z,9.80
2022-11-29T12:51:23.693Z,9.90
2022-11-29T12:52:38.420Z,9.90
2022-11-29T13:02:25.627Z,9.90
2022-11-29T13:03:34.908Z,9.80
2022-11-29T13:04:46.362Z,9.80
2022-11-29T13:06:07.820Z,9.80
2022-11-29T13:07:27.760Z,9.80
2022-11-29T13:09:19.236Z,9.90
2022-11-29T13:10:54.273Z,9.90
2022-11-29T13:12:12.991Z,10.00
2022-11-29T13:13:31.211Z,10.00
2022-11-29T13:14:43.335Z,10.00
2022-11-29T13:16:01.502Z,10.00
2022-11-29T13:17:16.280Z,10.00
2022-11-29T13:18:29.543Z,10.00
2022-11-29T13:19:44.802Z,9.90
2022-11-29T13:21:00.696Z,9.90
2022-11-29T13:22:19.699Z,9.90
2022-11-29T13:23:45.962Z,9.90
2022-11-29T13:25:03.021Z,9.90
2022-11-29T13:26:12.269Z,9.80
2022-11-29T13:27:20.372Z,9.80
2022-11-29T13:28:30.432Z,9.80
2022-11-29T13:29:34.999Z,9.80
2022-11-29T13:30:40.593Z,9.80
2022-11-29T13:31:44.161Z,9.80
2022-11-29T13:32:58.205Z,9.80
2022-11-29T13:34:11.185Z,9.80
2022-11-29T13:35:26.790Z,9.80
2022-11-29T13:36:45.304Z,9.80
2022-11-29T13:37:55.478Z,9.80
2022-11-29T13:39:14.816Z,9.80
2022-11-29T13:40:31.911Z,9.80
2022-11-29T13:41:46.749Z,9.80
2022-11-29T13:43:00.535Z,9.80
2022-11-29T13:44:17.430Z,9.90
2022-11-29T13:45:28.412Z,9.80
2022-11-29T13:46:47.276Z,9.90
2022-11-29T13:47:54.110Z,9.90
2022-11-29T13:48:58.242Z,9.90
2022-11-29T13:50:04.194Z,9.90
2022-11-29T13:51:32.993Z,9.80
2022-11-29T13:52:40.931Z,9.90
2022-11-29T13:53:48.874Z,9.90
2022-11-29T13:55:21.974Z,9.90
2022-11-29T13:56:46.715Z,9.90
2022-11-29T13:58:15.586Z,9.90
2022-11-29T13:59:24.122Z,9.90
2022-11-29T14:00:39.738Z,9.90
2022-11-29T14:01:48.737Z,9.90
2022-11-29T14:02:55.150Z,9.90
2022-11-29T14:04:10.922Z,9.90
2022-11-29T14:05:27.789Z,9.90
2022-11-29T14:06:41.568Z,9.90
2022-11-29T14:08:37.899Z,9.90
2022-11-29T14:10:00.089Z,9.90
2022-11-29T14:11:19.876Z,9.90
2022-11-29T14:12:43.032Z,9.80
2022-11-29T14:13:54.263Z,9.80
2022-11-29T14:15:02.549Z,9.80
2022-11-29T14:16:15.477Z,9.80
2022-11-29T14:17:46.656Z,9.80
2022-11-29T14:19:32.805Z,9.70
2022-11-29T14:20:59.230Z,9.70
2022-11-29T14:22:33.131Z,9.70
2022-11-29T14:23:43.477Z,9.70
2022-11-29T14:26:50.053Z,9.60
2022-11-29T14:27:59.694Z,9.60
2022-11-29T14:29:55.341Z,9.60
2022-11-29T14:31:01.436Z,9.60
2022-11-29T14:32:05.893Z,9.60
2022-11-29T14:33:48.089Z,9.60
2022-11-29T14:34:59.221Z,9.50
2022-11-29T14:36:41.921Z,9.50
2022-11-29T14:38:04.883Z,9.50
2022-11-29T14:39:32.441Z,9.50
2022-11-29T14:42:28.284Z,9.50
2022-11-29T14:43:41.861Z,9.50
2022-11-29T14:44:49.750Z,9.50
2022-11-29T14:46:10.234Z,9.40
2022-11-29T14:47:26.096Z,9.40
2022-11-29T14:48:33.217Z,9.40
2022-11-29T14:49:45.895Z,9.40
2022-11-29T14:50:51.113Z,9.40
2022-11-29T14:52:25.617Z,9.40
2022-11-29T14:53:36.749Z,9.40
2022-11-29T14:55:01.997Z,9.40
2022-11-29T14:56:38.989Z,9.40
2022-11-29T14:58:24.157Z,9.30
2022-11-29T14:59:55.389Z,9.30
2022-11-29T15:01:10.873Z,9.30
2022-11-29T15:02:33.545Z,9.30
2022-11-29T15:03:50.688Z,9.30
2022-11-29T15:04:57.572Z,9.20
2022-11-29T15:06:24.428Z,9.20
2022-11-29T15:07:32.641Z,9.20
2022-11-29T15:08:51.843Z,9.20
2022-11-29T15:10:05.579Z,9.20
2022-11-29T15:11:19.351Z,9.20
2022-11-29T15:12:27.705Z,9.10
2022-11-29T15:13:34.105Z,9.10
2022-11-29T15:14:55.309Z,9.10
2022-11-29T15:16:37.443Z,9.10
2022-11-29T15:17:51.614Z,9.10
2022-11-29T15:19:36.667Z,9.00
2022-11-29T15:20:56.089Z,9.00
2022-11-29T15:22:14.805Z,9.00
2022-11-29T15:23:21.187Z,8.90
2022-11-29T15:24:28.173Z,8.90
2022-11-29T15:25:36.001Z,8.90
2022-11-29T15:26:38.759Z,8.90
2022-11-29T15:27:54.529Z,8.90
2022-11-29T15:29:15.049Z,8.90
2022-11-29T15:30:29.980Z,8.80
2022-11-29T15:31:34.481Z,8.80
2022-11-29T15:32:40.987Z,8.80
2022-11-29T15:33:49.747Z,8.80
2022-11-29T15:35:08.770Z,8.70
2022-11-29T15:36:17.762Z,8.70
2022-11-29T15:37:44.747Z,8.70
2022-11-29T15:38:51.684Z,8.70
2022-11-29T15:40:11.548Z,8.60
2022-11-29T15:41:26.920Z,8.60
2022-11-29T15:42:44.310Z,8.60
2022-11-29T15:43:52.521Z,8.60
2022-11-29T15:44:59.180Z,8.60
2022-11-29T15:46:05.704Z,8.60
2022-11-29T15:47:27.045Z,8.50
2022-11-29T15:48:35.874Z,8.50
2022-11-29T15:49:38.677Z,8.50
2022-11-29T15:50:52.356Z,8.40
2022-11-29T15:52:03.408Z,8.40
2022-11-29T15:53:21.533Z,8.40
2022-11-29T15:54:35.383Z,8.40
2022-11-29T15:55:38.463Z,8.40
2022-11-29T15:56:52.195Z,8.40
2022-11-29T15:58:03.869Z,8.40
2022-11-29T15:59:25.289Z,8.30
2022-11-29T16:00:33.991Z,8.30
2022-11-29T16:01:44.399Z,8.30
2022-11-29T16:02:52.550Z,8.30
2022-11-29T16:03:59.495Z,8.30
2022-11-29T16:05:11.059Z,8.30
2022-11-29T16:06:29.037Z,8.30
2022-11-29T16:07:35.467Z,8.30
2022-11-29T16:08:42.577Z,8.30
2022-11-29T16:09:49.747Z,8.30
2022-11-29T16:10:55.558Z,8.30
2022-11-29T16:12:12.590Z,8.20
2022-11-29T16:13:34.005Z,8.30
2022-11-29T16:14:37.907Z,8.20
2022-11-29T16:15:48.023Z,8.20
2022-11-29T16:16:55.952Z,8.20
2022-11-29T16:18:06.003Z,8.20
2022-11-29T16:19:18.482Z,8.20
2022-11-29T16:20:27.511Z,8.20
2022-11-29T16:21:32.498Z,8.20
2022-11-29T16:22:48.197Z,8.20
2022-11-29T16:23:54.282Z,8.20
2022-11-29T16:25:08.609Z,8.20
2022-11-29T16:26:19.021Z,8.20
2022-11-29T16:27:26.090Z,8.20
2022-11-29T16:28:37.058Z,8.20
2022-11-29T16:29:46.484Z,8.20
2022-11-29T16:30:55.536Z,8.20
2022-11-29T16:31:59.592Z,8.10
2022-11-29T16:33:05.907Z,8.10
2022-11-29T16:34:26.128Z,8.10
2022-11-29T16:35:35.035Z,8.10
2022-11-29T16:36:38.745Z,8.10